LHSM/SOB METAR and TAF weather

Enter ICAO airport designator
Station Type Date Time Source
LHSM METAR 2024/02/26 17:45 UTC NOAA

LHSM 261745Z AUTO 14004KT CAVOK 09/01 Q1008


Station Type Date Time Source
LHSM Decoded METAR 2024/02/26 17:45 UTC NOAA

Station name not available
Feb 26, 2024 - 12:45 PM EST / 2024.02.26 1745 UTC
Wind: from the SE (140 degrees) at 5 MPH (4 KT):0
Visibility: greater than 7 mile(s):0
Temperature: 48 F (9 C)
Dew Point: 33 F (1 C)
Relative Humidity: 57%
Pressure (altimeter): 29.77 in. Hg (1008 hPa)
ob: LHSM 261745Z AUTO 14004KT CAVOK 09/01 Q1008
cycle: 18

Station Type Date Time Source
LHSM TAF UTC NOAA

Error!

Example: see airport list